PWSweather.com
Personal Weather Stations
Station Observations
MICROSHIP
Friday Harbor, Friday Harbor, WA 98250

Friday HarborFriday Harbor, WA 98250

Lat: 48.538, Lon: -123.016

Elevation: 16

Station Type: Ambient Weather WS-1001-WIFI ObserverIP

https://microship.com/

Latest ConditionsUpdated 4:00:00 PM PST Tuesday, Jan 23, 2018
Currently Today's Max Today's Min Today's Average
Temperature 45.1°F7.3°C 46.0°F7.8°C 43.0°F6.1°C 44.6°F7.0°C
Dew Point 44.8°F7.1°C 44.8°F7.1°C 42.7°F5.9°C 43.9°F6.6°C
Winds 9.1 mph E14.6 kmh E 20.4 mph SE32.8 kmh SE - 12.0 mph 19.3 kmh
Wind Gusts 19.9 mph32.0 kmh 45.0 mph72.4 kmh - -
Humidity 99% 99% 90% 97%
Pressure 29.98 in1015.2 mb 30.44 in1030.8 mb 29.98 in1015.2 mb -
Precipitation - 0.11 in2.8 mm - -
Hour Temp Dew Point Humidity Winds Wind Gusts Pressure Precip Precip Rate Daily Precip Total
04:00 PM 45.1°F7.3°C 44.8°F7.1°C 99% 9.1 mph E14.6 kmh E 19.9 mph32.0 kmh 29.98 in1015.2 mb 0.00 in0.0 mm 0.00 in0.0 mm 0.11 in2.8 mm
03:55 PM 45.1°F7.3°C 44.8°F7.1°C 99% 10.5 mph ESE16.9 kmh ESE 19.9 mph32.0 kmh 29.98 in1015.2 mb 0.00 in0.0 mm 0.00 in0.0 mm 0.11 in2.8 mm
03:50 PM 45.1°F7.3°C 44.8°F7.1°C 99% 7.9 mph SE12.7 kmh SE 15.0 mph24.1 kmh 29.98 in1015.2 mb 0.00 in0.0 mm 0.00 in0.0 mm 0.11 in2.8 mm
03:45 PM 45.1°F7.3°C 44.8°F7.1°C 99% 8.7 mph ESE14.0 kmh ESE 19.9 mph32.0 kmh 29.98 in1015.2 mb 0.00 in0.0 mm 0.00 in0.0 mm 0.11 in2.8 mm
03:40 PM 45.0°F7.2°C 44.7°F7.1°C 99% 9.3 mph ESE15.0 kmh ESE 15.0 mph24.1 kmh 29.99 in1015.6 mb 0.00 in0.0 mm 0.00 in0.0 mm 0.11 in2.8 mm
03:35 PM 45.0°F7.2°C 44.7°F7.1°C 99% 11.2 mph ESE18.0 kmh ESE 19.9 mph32.0 kmh 29.99 in1015.6 mb 0.00 in0.0 mm 0.00 in0.0 mm 0.11 in2.8 mm
03:30 PM 45.0°F7.2°C 44.7°F7.1°C 99% 13.5 mph SE21.7 kmh SE 22.4 mph36.0 kmh 30.00 in1015.9 mb 0.00 in0.0 mm 0.00 in0.0 mm 0.11 in2.8 mm
03:25 PM 44.9°F7.2°C 44.6°F7.0°C 99% 10.3 mph SE16.6 kmh SE 22.4 mph36.0 kmh 29.99 in1015.6 mb 0.00 in0.0 mm 0.00 in0.0 mm 0.11 in2.8 mm
03:20 PM 44.8°F7.1°C 44.5°F6.9°C 99% 10.7 mph SE17.2 kmh SE 19.9 mph32.0 kmh 29.99 in1015.6 mb 0.00 in0.0 mm 0.00 in0.0 mm 0.11 in2.8 mm
03:15 PM 44.8°F7.1°C 44.5°F6.9°C 99% 10.2 mph SE16.4 kmh SE 24.8 mph39.9 kmh 29.99 in1015.6 mb 0.00 in0.0 mm 0.00 in0.0 mm 0.11 in2.8 mm
03:10 PM 44.8°F7.1°C 44.5°F6.9°C 99% 9.1 mph SE14.6 kmh SE 17.4 mph28.0 kmh 29.99 in1015.6 mb 0.00 in0.0 mm 0.00 in0.0 mm 0.11 in2.8 mm
03:05 PM 44.7°F7.1°C 44.4°F6.9°C 99% 9.4 mph SE15.1 kmh SE 19.9 mph32.0 kmh 29.99 in1015.6 mb 0.00 in0.0 mm 0.00 in0.0 mm 0.11 in2.8 mm
03:00 PM 44.6°F7.0°C 44.3°F6.8°C 99% 13.1 mph SE21.1 kmh SE 24.8 mph39.9 kmh 29.99 in1015.6 mb 0.00 in0.0 mm 0.00 in0.0 mm 0.11 in2.8 mm
02:55 PM 44.6°F7.0°C 44.3°F6.8°C 99% 12.0 mph SE19.3 kmh SE 24.8 mph39.9 kmh 29.98 in1015.2 mb 0.00 in0.0 mm 0.00 in0.0 mm 0.11 in2.8 mm
02:50 PM 44.6°F7.0°C 44.3°F6.8°C 99% 10.6 mph SE17.1 kmh SE 19.9 mph32.0 kmh 29.98 in1015.2 mb 0.00 in0.0 mm 0.00 in0.0 mm 0.11 in2.8 mm
02:45 PM 44.5°F6.9°C 44.3°F6.8°C 99% 11.2 mph SE18.0 kmh SE 17.4 mph28.0 kmh 29.98 in1015.2 mb 0.00 in0.0 mm 0.00 in0.0 mm 0.11 in2.8 mm
02:40 PM 44.4°F6.9°C 44.1°F6.7°C 99% 11.0 mph SE17.7 kmh SE 19.9 mph32.0 kmh 29.99 in1015.6 mb 0.00 in0.0 mm 0.00 in0.0 mm 0.11 in2.8 mm
02:35 PM 44.4°F6.9°C 44.1°F6.7°C 99% 12.1 mph SE19.5 kmh SE 22.4 mph36.0 kmh 29.99 in1015.6 mb 0.00 in0.0 mm 0.00 in0.0 mm 0.11 in2.8 mm
02:30 PM 44.4°F6.9°C 44.1°F6.7°C 99% 12.1 mph ESE19.5 kmh ESE 22.4 mph36.0 kmh 30.00 in1015.9 mb 0.00 in0.0 mm 0.00 in0.0 mm 0.11 in2.8 mm
02:25 PM 44.4°F6.9°C 44.1°F6.7°C 99% 12.0 mph SE19.3 kmh SE 22.4 mph36.0 kmh 30.00 in1015.9 mb 0.00 in0.0 mm 0.00 in0.0 mm 0.11 in2.8 mm
02:20 PM 44.4°F6.9°C 44.1°F6.7°C 99% 12.0 mph SE19.3 kmh SE 22.4 mph36.0 kmh 30.00 in1015.9 mb 0.00 in0.0 mm 0.00 in0.0 mm 0.11 in2.8 mm
02:15 PM 44.3°F6.8°C 44.0°F6.7°C 99% 9.8 mph SE15.8 kmh SE 17.4 mph28.0 kmh 30.01 in1016.3 mb 0.00 in0.0 mm 0.00 in0.0 mm 0.11 in2.8 mm
02:10 PM 44.2°F6.8°C 43.9°F6.6°C 99% 14.2 mph SE22.9 kmh SE 27.5 mph44.3 kmh 30.01 in1016.3 mb 0.00 in0.0 mm 0.00 in0.0 mm 0.11 in2.8 mm
02:05 PM 44.2°F6.8°C 43.9°F6.6°C 99% 11.4 mph SE18.3 kmh SE 22.4 mph36.0 kmh 30.01 in1016.3 mb 0.00 in0.0 mm 0.00 in0.0 mm 0.11 in2.8 mm
02:00 PM 44.1°F6.7°C 43.9°F6.6°C 99% 10.5 mph ESE16.9 kmh ESE 19.9 mph32.0 kmh 30.01 in1016.3 mb 0.02 in0.5 mm 0.00 in0.0 mm 0.11 in2.8 mm
01:55 PM 44.1°F6.7°C 43.8°F6.6°C 99% 12.7 mph SE20.4 kmh SE 22.4 mph36.0 kmh 30.01 in1016.3 mb 0.03 in0.8 mm 0.00 in0.0 mm 0.11 in2.8 mm
01:50 PM 44.0°F6.7°C 43.8°F6.6°C 99% 10.9 mph SE17.5 kmh SE 22.4 mph36.0 kmh 30.01 in1016.3 mb 0.03 in0.8 mm 0.00 in0.0 mm 0.11 in2.8 mm
01:45 PM 43.9°F6.6°C 43.6°F6.4°C 99% 10.3 mph SE16.6 kmh SE 19.9 mph32.0 kmh 30.01 in1016.3 mb 0.03 in0.8 mm 0.00 in0.0 mm 0.11 in2.8 mm
01:40 PM 43.8°F6.6°C 43.5°F6.4°C 99% 10.6 mph SE17.1 kmh SE 19.9 mph32.0 kmh 30.00 in1015.9 mb 0.03 in0.8 mm 0.00 in0.0 mm 0.11 in2.8 mm
01:35 PM 43.6°F6.4°C 43.4°F6.3°C 99% 11.0 mph SE17.7 kmh SE 17.4 mph28.0 kmh 30.00 in1015.9 mb 0.03 in0.8 mm 0.00 in0.0 mm 0.11 in2.8 mm
01:30 PM 43.5°F6.4°C 43.2°F6.2°C 99% 12.9 mph SE20.8 kmh SE 22.4 mph36.0 kmh 29.99 in1015.6 mb 0.03 in0.8 mm 0.00 in0.0 mm 0.11 in2.8 mm
01:25 PM 43.4°F6.3°C 43.1°F6.2°C 99% 12.0 mph SE19.3 kmh SE 30.0 mph48.3 kmh 30.00 in1015.9 mb 0.03 in0.8 mm 0.00 in0.0 mm 0.11 in2.8 mm
01:20 PM 43.3°F6.3°C 43.0°F6.1°C 99% 15.3 mph SE24.6 kmh SE 30.0 mph48.3 kmh 30.01 in1016.3 mb 0.03 in0.8 mm 0.00 in0.0 mm 0.11 in2.8 mm
01:15 PM 43.3°F6.3°C 43.0°F6.1°C 99% 11.6 mph SE18.7 kmh SE 19.9 mph32.0 kmh 30.01 in1016.3 mb 0.04 in1.0 mm 0.00 in0.0 mm 0.11 in2.8 mm
01:10 PM 43.3°F6.3°C 43.1°F6.2°C 99% 15.4 mph SE24.8 kmh SE 34.9 mph56.2 kmh 30.02 in1016.6 mb 0.05 in1.3 mm 0.00 in0.0 mm 0.11 in2.8 mm
01:05 PM 43.5°F6.4°C 43.2°F6.2°C 99% 15.7 mph SE25.3 kmh SE 27.5 mph44.3 kmh 30.02 in1016.6 mb 0.06 in1.5 mm 0.24 in6.1 mm 0.11 in2.8 mm
01:00 PM 43.5°F6.4°C 43.2°F6.2°C 99% 11.3 mph SE18.2 kmh SE 19.9 mph32.0 kmh 30.02 in1016.6 mb 0.04 in1.0 mm 0.00 in0.0 mm 0.09 in2.3 mm
12:55 PM 43.5°F6.4°C 43.2°F6.2°C 99% 12.0 mph SE19.3 kmh SE 24.8 mph39.9 kmh 30.02 in1016.6 mb 0.04 in1.0 mm 0.00 in0.0 mm 0.08 in2.0 mm
12:50 PM 43.3°F6.3°C 43.1°F6.2°C 99% 14.1 mph SE22.7 kmh SE 24.8 mph39.9 kmh 30.03 in1016.9 mb 0.06 in1.5 mm 0.00 in0.0 mm 0.08 in2.0 mm
12:45 PM 43.3°F6.3°C 43.0°F6.1°C 99% 14.9 mph ESE24.0 kmh ESE 30.0 mph48.3 kmh 30.02 in1016.6 mb 0.07 in1.8 mm 0.00 in0.0 mm 0.08 in2.0 mm
12:40 PM 43.3°F6.3°C 43.0°F6.1°C 99% 14.6 mph SE23.5 kmh SE 27.5 mph44.3 kmh 30.03 in1016.9 mb 0.07 in1.8 mm 0.00 in0.0 mm 0.08 in2.0 mm
12:35 PM 43.2°F6.2°C 42.9°F6.1°C 99% 14.0 mph SE22.5 kmh SE 27.5 mph44.3 kmh 30.02 in1016.6 mb 0.07 in1.8 mm 0.00 in0.0 mm 0.08 in2.0 mm
12:30 PM 43.2°F6.2°C 42.9°F6.1°C 99% 14.4 mph ESE23.2 kmh ESE 32.4 mph52.1 kmh 30.03 in1016.9 mb 0.07 in1.8 mm 0.00 in0.0 mm 0.08 in2.0 mm
12:25 PM 43.0°F6.1°C 42.7°F5.9°C 99% 13.4 mph SE21.6 kmh SE 27.5 mph44.3 kmh 30.03 in1016.9 mb 0.07 in1.8 mm 0.00 in0.0 mm 0.08 in2.0 mm
12:20 PM 43.0°F6.1°C 42.7°F5.9°C 99% 13.6 mph SE21.9 kmh SE 24.8 mph39.9 kmh 30.03 in1016.9 mb 0.07 in1.8 mm 0.12 in3.0 mm 0.08 in2.0 mm
12:15 PM 43.1°F6.2°C 42.8°F6.0°C 99% 12.1 mph SE19.5 kmh SE 22.4 mph36.0 kmh 30.04 in1017.3 mb 0.06 in1.5 mm 0.12 in3.0 mm 0.07 in1.8 mm
12:10 PM 43.2°F6.2°C 42.9°F6.1°C 99% 12.1 mph SE19.5 kmh SE 19.9 mph32.0 kmh 30.05 in1017.6 mb 0.05 in1.3 mm 0.12 in3.0 mm 0.06 in1.5 mm
12:05 PM 43.2°F6.2°C 43.0°F6.1°C 99% 8.8 mph ESE14.2 kmh ESE 17.4 mph28.0 kmh 30.05 in1017.6 mb 0.04 in1.0 mm 0.00 in0.0 mm 0.05 in1.3 mm
12:00 PM 43.3°F6.3°C 43.1°F6.2°C 99% 9.6 mph SE15.4 kmh SE 19.9 mph32.0 kmh 30.05 in1017.6 mb 0.04 in1.0 mm 0.01 in0.3 mm 0.05 in1.3 mm
11:55 AM 43.5°F6.4°C 43.2°F6.2°C 99% 12.5 mph SE20.1 kmh SE 22.4 mph36.0 kmh 30.05 in1017.6 mb 0.03 in0.8 mm 0.24 in6.1 mm 0.04 in1.0 mm
11:50 AM 43.7°F6.5°C 43.4°F6.3°C 99% 9.0 mph SE14.5 kmh SE 19.9 mph32.0 kmh 30.06 in1017.9 mb 0.01 in0.3 mm 0.12 in3.0 mm 0.02 in0.5 mm
11:45 AM 43.7°F6.5°C 43.4°F6.3°C 99% 7.6 mph SE12.2 kmh SE 22.4 mph36.0 kmh 30.06 in1017.9 mb 0.00 in0.0 mm 0.00 in0.0 mm 0.01 in0.3 mm
11:40 AM 43.7°F6.5°C 43.4°F6.3°C 99% 11.9 mph SE19.2 kmh SE 24.8 mph39.9 kmh 30.05 in1017.6 mb 0.00 in0.0 mm 0.00 in0.0 mm 0.01 in0.3 mm
11:35 AM 43.7°F6.5°C 43.4°F6.3°C 99% 10.0 mph SE16.1 kmh SE 22.4 mph36.0 kmh 30.06 in1017.9 mb 0.00 in0.0 mm 0.00 in0.0 mm 0.01 in0.3 mm
11:30 AM 43.7°F6.5°C 43.4°F6.3°C 99% 11.2 mph SE18.0 kmh SE 24.8 mph39.9 kmh 30.05 in1017.6 mb 0.00 in0.0 mm 0.00 in0.0 mm 0.01 in0.3 mm
11:25 AM 43.9°F6.6°C 43.6°F6.4°C 99% 8.7 mph SE14.0 kmh SE 17.4 mph28.0 kmh 30.06 in1017.9 mb 0.00 in0.0 mm 0.00 in0.0 mm 0.01 in0.3 mm
11:20 AM 43.9°F6.6°C 43.6°F6.4°C 99% 10.3 mph SE16.6 kmh SE 19.9 mph32.0 kmh 30.05 in1017.6 mb 0.00 in0.0 mm 0.00 in0.0 mm 0.01 in0.3 mm
11:15 AM 43.9°F6.6°C 43.6°F6.4°C 99% 10.5 mph SE16.9 kmh SE 22.4 mph36.0 kmh 30.05 in1017.6 mb 0.00 in0.0 mm 0.00 in0.0 mm 0.01 in0.3 mm
11:10 AM 44.0°F6.7°C 43.7°F6.5°C 99% 13.3 mph SE21.4 kmh SE 24.8 mph39.9 kmh 30.05 in1017.6 mb 0.00 in0.0 mm 0.00 in0.0 mm 0.01 in0.3 mm
11:05 AM 44.1°F6.7°C 43.8°F6.6°C 99% 11.5 mph SE18.5 kmh SE 30.0 mph48.3 kmh 30.06 in1017.9 mb 0.00 in0.0 mm 0.00 in0.0 mm 0.01 in0.3 mm
11:00 AM 44.1°F6.7°C 43.8°F6.6°C 99% 13.1 mph SE21.1 kmh SE 24.8 mph39.9 kmh 30.07 in1018.3 mb 0.00 in0.0 mm 0.00 in0.0 mm 0.01 in0.3 mm
10:55 AM 44.1°F6.7°C 43.8°F6.6°C 99% 17.1 mph ESE27.5 kmh ESE 37.4 mph60.2 kmh 30.07 in1018.3 mb 0.00 in0.0 mm 0.00 in0.0 mm 0.01 in0.3 mm
10:50 AM 44.2°F6.8°C 43.9°F6.6°C 99% 17.9 mph SE28.8 kmh SE 34.9 mph56.2 kmh 30.06 in1017.9 mb 0.00 in0.0 mm 0.00 in0.0 mm 0.01 in0.3 mm
10:45 AM 44.2°F6.8°C 43.9°F6.6°C 99% 15.8 mph SE25.4 kmh SE 30.0 mph48.3 kmh 30.07 in1018.3 mb 0.00 in0.0 mm 0.00 in0.0 mm 0.01 in0.3 mm
10:40 AM 44.1°F6.7°C 43.8°F6.6°C 99% 14.9 mph SE24.0 kmh SE 27.5 mph44.3 kmh 30.07 in1018.3 mb 0.00 in0.0 mm 0.00 in0.0 mm 0.01 in0.3 mm
10:35 AM 44.1°F6.7°C 43.8°F6.6°C 99% 16.4 mph SE26.4 kmh SE 24.8 mph39.9 kmh 30.06 in1017.9 mb 0.00 in0.0 mm 0.00 in0.0 mm 0.01 in0.3 mm
10:30 AM 44.1°F6.7°C 43.8°F6.6°C 99% 14.4 mph SE23.2 kmh SE 27.5 mph44.3 kmh 30.07 in1018.3 mb 0.00 in0.0 mm 0.00 in0.0 mm 0.01 in0.3 mm
10:25 AM 44.1°F6.7°C 43.8°F6.6°C 99% 13.2 mph SE21.2 kmh SE 24.8 mph39.9 kmh 30.07 in1018.3 mb 0.00 in0.0 mm 0.00 in0.0 mm 0.01 in0.3 mm
10:20 AM 44.1°F6.7°C 43.8°F6.6°C 99% 15.1 mph SE24.3 kmh SE 32.4 mph52.1 kmh 30.07 in1018.3 mb 0.00 in0.0 mm 0.00 in0.0 mm 0.01 in0.3 mm
10:15 AM 44.1°F6.7°C 43.8°F6.6°C 99% 14.9 mph SE24.0 kmh SE 30.0 mph48.3 kmh 30.07 in1018.3 mb 0.00 in0.0 mm 0.00 in0.0 mm 0.01 in0.3 mm
10:10 AM 44.1°F6.7°C 43.8°F6.6°C 99% 14.4 mph SE23.2 kmh SE 27.5 mph44.3 kmh 30.07 in1018.3 mb 0.00 in0.0 mm 0.00 in0.0 mm 0.01 in0.3 mm
10:05 AM 44.1°F6.7°C 43.9°F6.6°C 99% 17.3 mph SE27.8 kmh SE 30.0 mph48.3 kmh 30.07 in1018.3 mb 0.00 in0.0 mm 0.00 in0.0 mm 0.01 in0.3 mm
10:00 AM 44.2°F6.8°C 43.9°F6.6°C 99% 16.7 mph SE26.9 kmh SE 30.0 mph48.3 kmh 30.08 in1018.6 mb 0.00 in0.0 mm 0.00 in0.0 mm 0.01 in0.3 mm
09:55 AM 44.3°F6.8°C 44.1°F6.7°C 99% 15.2 mph SE24.5 kmh SE 30.0 mph48.3 kmh 30.08 in1018.6 mb 0.00 in0.0 mm 0.00 in0.0 mm 0.01 in0.3 mm
09:50 AM 44.5°F6.9°C 44.2°F6.8°C 99% 17.3 mph SE27.8 kmh SE 27.5 mph44.3 kmh 30.08 in1018.6 mb 0.00 in0.0 mm 0.00 in0.0 mm 0.01 in0.3 mm
09:45 AM 44.7°F7.1°C 44.4°F6.9°C 99% 20.4 mph SE32.8 kmh SE 37.4 mph60.2 kmh 30.08 in1018.6 mb 0.00 in0.0 mm 0.00 in0.0 mm 0.01 in0.3 mm
09:40 AM 44.8°F7.1°C 44.6°F7.0°C 99% 17.0 mph SE27.4 kmh SE 30.0 mph48.3 kmh 30.08 in1018.6 mb 0.00 in0.0 mm 0.00 in0.0 mm 0.01 in0.3 mm
09:35 AM 45.0°F7.2°C 44.7°F7.1°C 99% 16.1 mph SE25.9 kmh SE 27.5 mph44.3 kmh 30.08 in1018.6 mb 0.00 in0.0 mm 0.00 in0.0 mm 0.01 in0.3 mm
09:30 AM 45.1°F7.3°C 44.8°F7.1°C 99% 15.7 mph SE25.3 kmh SE 27.5 mph44.3 kmh 30.08 in1018.6 mb 0.00 in0.0 mm 0.00 in0.0 mm 0.01 in0.3 mm
09:25 AM 45.1°F7.3°C 44.8°F7.1°C 99% 16.5 mph SE26.6 kmh SE 32.4 mph52.1 kmh 30.08 in1018.6 mb 0.00 in0.0 mm 0.00 in0.0 mm 0.01 in0.3 mm
09:20 AM 45.1°F7.3°C 44.8°F7.1°C 99% 18.5 mph SE29.8 kmh SE 32.4 mph52.1 kmh 30.08 in1018.6 mb 0.00 in0.0 mm 0.00 in0.0 mm 0.01 in0.3 mm
09:15 AM 45.1°F7.3°C 44.8°F7.1°C 99% 14.8 mph ESE23.8 kmh ESE 27.5 mph44.3 kmh 30.09 in1019.0 mb 0.00 in0.0 mm 0.00 in0.0 mm 0.01 in0.3 mm
09:10 AM 45.1°F7.3°C 44.8°F7.1°C 99% 15.3 mph SE24.6 kmh SE 45.0 mph72.4 kmh 30.09 in1019.0 mb 0.00 in0.0 mm 0.00 in0.0 mm 0.01 in0.3 mm
09:05 AM 45.0°F7.2°C 44.8°F7.1°C 99% 13.6 mph SE21.9 kmh SE 30.0 mph48.3 kmh 30.09 in1019.0 mb 0.00 in0.0 mm 0.00 in0.0 mm 0.01 in0.3 mm
09:00 AM 45.0°F7.2°C 44.7°F7.1°C 99% 17.0 mph SE27.4 kmh SE 34.9 mph56.2 kmh 30.09 in1019.0 mb 0.00 in0.0 mm 0.00 in0.0 mm 0.01 in0.3 mm
08:55 AM 44.8°F7.1°C 44.5°F6.9°C 99% 14.8 mph SE23.8 kmh SE 27.5 mph44.3 kmh 30.09 in1019.0 mb 0.00 in0.0 mm 0.00 in0.0 mm 0.01 in0.3 mm
08:50 AM 44.7°F7.1°C 44.4°F6.9°C 99% 16.0 mph SE25.7 kmh SE 34.9 mph56.2 kmh 30.09 in1019.0 mb 0.00 in0.0 mm 0.00 in0.0 mm 0.01 in0.3 mm
08:45 AM 44.5°F6.9°C 44.2°F6.8°C 99% 18.8 mph ESE30.3 kmh ESE 42.5 mph68.4 kmh 30.08 in1018.6 mb 0.00 in0.0 mm 0.00 in0.0 mm 0.01 in0.3 mm
08:40 AM 44.3°F6.8°C 44.1°F6.7°C 99% 13.3 mph SE21.4 kmh SE 22.4 mph36.0 kmh 30.08 in1018.6 mb 0.01 in0.3 mm 0.00 in0.0 mm 0.01 in0.3 mm
08:35 AM 44.2°F6.8°C 43.9°F6.6°C 99% 18.5 mph ESE29.8 kmh ESE 30.0 mph48.3 kmh 30.08 in1018.6 mb 0.01 in0.3 mm 0.00 in0.0 mm 0.01 in0.3 mm
08:30 AM 44.1°F6.7°C 43.8°F6.6°C 99% 12.1 mph ESE19.5 kmh ESE 19.9 mph32.0 kmh 30.08 in1018.6 mb 0.01 in0.3 mm 0.00 in0.0 mm 0.01 in0.3 mm
08:25 AM 44.1°F6.7°C 43.8°F6.6°C 99% 12.6 mph ESE20.3 kmh ESE 24.8 mph39.9 kmh 30.09 in1019.0 mb 0.01 in0.3 mm 0.00 in0.0 mm 0.01 in0.3 mm
08:20 AM 44.1°F6.7°C 43.9°F6.6°C 99% 13.4 mph SE21.6 kmh SE 19.9 mph32.0 kmh 30.09 in1019.0 mb 0.01 in0.3 mm 0.00 in0.0 mm 0.01 in0.3 mm
08:15 AM 44.2°F6.8°C 44.0°F6.7°C 99% 15.7 mph SE25.3 kmh SE 27.5 mph44.3 kmh 30.09 in1019.0 mb 0.01 in0.3 mm 0.00 in0.0 mm 0.01 in0.3 mm
08:10 AM 44.5°F6.9°C 44.2°F6.8°C 99% 12.8 mph ESE20.6 kmh ESE 24.8 mph39.9 kmh 30.09 in1019.0 mb 0.01 in0.3 mm 0.00 in0.0 mm 0.01 in0.3 mm
08:05 AM 44.8°F7.1°C 44.5°F6.9°C 99% 12.9 mph SE20.8 kmh SE 24.8 mph39.9 kmh 30.10 in1019.3 mb 0.01 in0.3 mm 0.00 in0.0 mm 0.01 in0.3 mm
08:00 AM 45.0°F7.2°C 44.5°F6.9°C 98% 15.4 mph SE24.8 kmh SE 30.0 mph48.3 kmh 30.10 in1019.3 mb 0.01 in0.3 mm 0.00 in0.0 mm 0.01 in0.3 mm
07:55 AM 45.2°F7.3°C 44.8°F7.1°C 99% 14.5 mph ESE23.3 kmh ESE 27.5 mph44.3 kmh 30.11 in1019.6 mb 0.01 in0.3 mm 0.00 in0.0 mm 0.01 in0.3 mm
07:50 AM 45.5°F7.5°C 44.4°F6.9°C 96% 13.3 mph SE21.4 kmh SE 32.4 mph52.1 kmh 30.11 in1019.6 mb 0.01 in0.3 mm 0.00 in0.0 mm 0.01 in0.3 mm
07:45 AM 45.6°F7.6°C 43.5°F6.4°C 92% 13.7 mph SE22.0 kmh SE 32.4 mph52.1 kmh 30.11 in1019.6 mb 0.01 in0.3 mm 0.12 in3.0 mm 0.01 in0.3 mm
07:40 AM 45.7°F7.6°C 43.3°F6.3°C 91% 11.1 mph SE17.9 kmh SE 22.4 mph36.0 kmh 30.12 in1020.0 mb 0.00 in0.0 mm 0.00 in0.0 mm 0.00 in0.0 mm
07:35 AM 45.7°F7.6°C 43.8°F6.6°C 93% 14.0 mph E22.5 kmh E 22.4 mph36.0 kmh 30.12 in1020.0 mb 0.00 in0.0 mm 0.00 in0.0 mm 0.00 in0.0 mm
07:30 AM 45.7°F7.6°C 43.6°F6.4°C 92% 12.3 mph E19.8 kmh E 17.4 mph28.0 kmh 30.12 in1020.0 mb 0.00 in0.0 mm 0.00 in0.0 mm 0.00 in0.0 mm
07:25 AM 45.9°F7.7°C 43.7°F6.5°C 92% 14.2 mph E22.9 kmh E 22.4 mph36.0 kmh 30.13 in1020.3 mb 0.00 in0.0 mm 0.00 in0.0 mm 0.00 in0.0 mm
07:20 AM 45.9°F7.7°C 43.6°F6.4°C 92% 13.9 mph E22.4 kmh E 22.4 mph36.0 kmh 30.13 in1020.3 mb 0.00 in0.0 mm 0.00 in0.0 mm 0.00 in0.0 mm
07:15 AM 46.0°F7.8°C 43.6°F6.4°C 91% 14.1 mph E22.7 kmh E 19.9 mph32.0 kmh 30.14 in1020.7 mb 0.00 in0.0 mm 0.00 in0.0 mm 0.00 in0.0 mm
07:10 AM 46.0°F7.8°C 43.3°F6.3°C 90% 14.8 mph ESE23.8 kmh ESE 27.5 mph44.3 kmh 30.14 in1020.7 mb 0.00 in0.0 mm 0.00 in0.0 mm 0.00 in0.0 mm
07:05 AM 46.0°F7.8°C 43.2°F6.2°C 90% 14.8 mph ESE23.8 kmh ESE 22.4 mph36.0 kmh 30.14 in1020.7 mb 0.00 in0.0 mm 0.00 in0.0 mm 0.00 in0.0 mm
07:00 AM 46.0°F7.8°C 43.3°F6.3°C 90% 12.5 mph E20.1 kmh E 22.4 mph36.0 kmh 30.14 in1020.7 mb 0.00 in0.0 mm 0.00 in0.0 mm 0.00 in0.0 mm
06:55 AM 46.0°F7.8°C 43.5°F6.4°C 91% 12.2 mph E19.6 kmh E 19.9 mph32.0 kmh 30.14 in1020.7 mb 0.00 in0.0 mm 0.00 in0.0 mm 0.00 in0.0 mm
06:50 AM 46.0°F7.8°C 43.2°F6.2°C 90% 12.8 mph E20.6 kmh E 22.4 mph36.0 kmh 30.14 in1020.7 mb 0.00 in0.0 mm 0.00 in0.0 mm 0.00 in0.0 mm
06:45 AM 46.0°F7.8°C 43.4°F6.3°C 91% 13.2 mph E21.2 kmh E 24.8 mph39.9 kmh 30.15 in1021.0 mb 0.00 in0.0 mm 0.00 in0.0 mm 0.00 in0.0 mm
06:40 AM 46.0°F7.8°C 43.3°F6.3°C 90% 12.7 mph E20.4 kmh E 22.4 mph36.0 kmh 30.16 in1021.3 mb 0.00 in0.0 mm 0.00 in0.0 mm 0.00 in0.0 mm
06:35 AM 46.0°F7.8°C 43.2°F6.2°C 90% 13.3 mph E21.4 kmh E 24.8 mph39.9 kmh 30.16 in1021.3 mb 0.00 in0.0 mm 0.00 in0.0 mm 0.00 in0.0 mm
06:30 AM 46.0°F7.8°C 43.5°F6.4°C 91% 13.7 mph E22.0 kmh E 19.9 mph32.0 kmh 30.16 in1021.3 mb 0.00 in0.0 mm 0.00 in0.0 mm 0.00 in0.0 mm
06:25 AM 46.0°F7.8°C 43.4°F6.3°C 90% 13.2 mph E21.2 kmh E 24.8 mph39.9 kmh 30.17 in1021.7 mb 0.00 in0.0 mm 0.00 in0.0 mm 0.00 in0.0 mm
06:20 AM 46.0°F7.8°C 43.4°F6.3°C 90% 9.4 mph E15.1 kmh E 17.4 mph28.0 kmh 30.17 in1021.7 mb 0.00 in0.0 mm 0.00 in0.0 mm 0.00 in0.0 mm
06:15 AM 46.0°F7.8°C 43.1°F6.2°C 90% 10.5 mph E16.9 kmh E 17.4 mph28.0 kmh 30.17 in1021.7 mb 0.00 in0.0 mm 0.00 in0.0 mm 0.00 in0.0 mm
06:10 AM 46.0°F7.8°C 43.5°F6.4°C 91% 9.4 mph E15.1 kmh E 15.0 mph24.1 kmh 30.17 in1021.7 mb 0.00 in0.0 mm 0.00 in0.0 mm 0.00 in0.0 mm
06:05 AM 46.0°F7.8°C 43.5°F6.4°C 91% 11.1 mph E17.9 kmh E 22.4 mph36.0 kmh 30.18 in1022.0 mb 0.00 in0.0 mm 0.00 in0.0 mm 0.00 in0.0 mm
06:00 AM 46.0°F7.8°C 43.2°F6.2°C 90% 11.6 mph E18.7 kmh E 19.9 mph32.0 kmh 30.18 in1022.0 mb 0.00 in0.0 mm 0.00 in0.0 mm 0.00 in0.0 mm
05:55 AM 45.9°F7.7°C 43.1°F6.2°C 90% 13.8 mph E22.2 kmh E 24.8 mph39.9 kmh 30.19 in1022.4 mb 0.00 in0.0 mm 0.00 in0.0 mm 0.00 in0.0 mm
05:50 AM 45.8°F7.7°C 43.2°F6.2°C 90% 9.8 mph E15.8 kmh E 17.4 mph28.0 kmh 30.19 in1022.4 mb 0.00 in0.0 mm 0.00 in0.0 mm 0.00 in0.0 mm
05:45 AM 45.7°F7.6°C 43.2°F6.2°C 91% 9.8 mph ENE15.8 kmh ENE 15.0 mph24.1 kmh 30.19 in1022.4 mb 0.00 in0.0 mm 0.00 in0.0 mm 0.00 in0.0 mm
05:40 AM 45.7°F7.6°C 43.2°F6.2°C 91% 14.1 mph ENE22.7 kmh ENE 24.8 mph39.9 kmh 30.20 in1022.7 mb 0.00 in0.0 mm 0.00 in0.0 mm 0.00 in0.0 mm
05:35 AM 45.5°F7.5°C 43.4°F6.3°C 92% 11.5 mph ENE18.5 kmh ENE 17.4 mph28.0 kmh 30.20 in1022.7 mb 0.00 in0.0 mm 0.00 in0.0 mm 0.00 in0.0 mm
05:30 AM 45.5°F7.5°C 43.8°F6.6°C 94% 9.3 mph E15.0 kmh E 17.4 mph28.0 kmh 30.21 in1023.0 mb 0.00 in0.0 mm 0.00 in0.0 mm 0.00 in0.0 mm
05:25 AM 45.5°F7.5°C 43.7°F6.5°C 93% 10.5 mph E16.9 kmh E 19.9 mph32.0 kmh 30.21 in1023.0 mb 0.00 in0.0 mm 0.00 in0.0 mm 0.00 in0.0 mm
05:20 AM 45.5°F7.5°C 43.8°F6.6°C 94% 9.9 mph E15.9 kmh E 17.4 mph28.0 kmh 30.22 in1023.4 mb 0.00 in0.0 mm 0.00 in0.0 mm 0.00 in0.0 mm
05:15 AM 45.5°F7.5°C 43.8°F6.6°C 94% 14.1 mph E22.7 kmh E 22.4 mph36.0 kmh 30.22 in1023.4 mb 0.00 in0.0 mm 0.00 in0.0 mm 0.00 in0.0 mm
05:10 AM 45.5°F7.5°C 44.0°F6.7°C 94% 13.8 mph E22.2 kmh E 22.4 mph36.0 kmh 30.23 in1023.7 mb 0.00 in0.0 mm 0.00 in0.0 mm 0.00 in0.0 mm
05:05 AM 45.7°F7.6°C 44.2°F6.8°C 94% 11.5 mph E18.5 kmh E 24.8 mph39.9 kmh 30.23 in1023.7 mb 0.00 in0.0 mm 0.00 in0.0 mm 0.00 in0.0 mm
05:00 AM 45.7°F7.6°C 44.1°F6.7°C 94% 13.3 mph E21.4 kmh E 19.9 mph32.0 kmh 30.25 in1024.4 mb 0.00 in0.0 mm 0.00 in0.0 mm 0.00 in0.0 mm
04:55 AM 45.7°F7.6°C 44.0°F6.7°C 94% 11.0 mph E17.7 kmh E 19.9 mph32.0 kmh 30.25 in1024.4 mb 0.00 in0.0 mm 0.00 in0.0 mm 0.00 in0.0 mm
04:50 AM 45.6°F7.6°C 43.7°F6.5°C 93% 12.3 mph E19.8 kmh E 19.9 mph32.0 kmh 30.26 in1024.7 mb 0.00 in0.0 mm 0.00 in0.0 mm 0.00 in0.0 mm
04:45 AM 45.5°F7.5°C 43.6°F6.4°C 93% 13.7 mph E22.0 kmh E 24.8 mph39.9 kmh 30.27 in1025.1 mb 0.00 in0.0 mm 0.00 in0.0 mm 0.00 in0.0 mm
04:40 AM 45.4°F7.4°C 43.5°F6.4°C 93% 13.0 mph ESE20.9 kmh ESE 19.9 mph32.0 kmh 30.27 in1025.1 mb 0.00 in0.0 mm 0.00 in0.0 mm 0.00 in0.0 mm
04:35 AM 45.3°F7.4°C 43.5°F6.4°C 94% 13.2 mph E21.2 kmh E 22.4 mph36.0 kmh 30.27 in1025.1 mb 0.00 in0.0 mm 0.00 in0.0 mm 0.00 in0.0 mm
04:30 AM 45.1°F7.3°C 43.7°F6.5°C 95% 13.0 mph E20.9 kmh E 22.4 mph36.0 kmh 30.27 in1025.1 mb 0.00 in0.0 mm 0.00 in0.0 mm 0.00 in0.0 mm
04:25 AM 45.1°F7.3°C 43.9°F6.6°C 96% 11.4 mph E18.3 kmh E 19.9 mph32.0 kmh 30.27 in1025.1 mb 0.00 in0.0 mm 0.00 in0.0 mm 0.00 in0.0 mm
04:20 AM 45.0°F7.2°C 43.9°F6.6°C 96% 12.3 mph E19.8 kmh E 17.4 mph28.0 kmh 30.28 in1025.4 mb 0.00 in0.0 mm 0.00 in0.0 mm 0.00 in0.0 mm
04:15 AM 45.0°F7.2°C 43.9°F6.6°C 96% 12.6 mph E20.3 kmh E 19.9 mph32.0 kmh 30.29 in1025.7 mb 0.00 in0.0 mm 0.00 in0.0 mm 0.00 in0.0 mm
04:10 AM 45.0°F7.2°C 44.1°F6.7°C 97% 12.1 mph E19.5 kmh E 19.9 mph32.0 kmh 30.29 in1025.7 mb 0.00 in0.0 mm 0.00 in0.0 mm 0.00 in0.0 mm
04:05 AM 45.0°F7.2°C 44.0°F6.7°C 96% 12.5 mph E20.1 kmh E 19.9 mph32.0 kmh 30.30 in1026.1 mb 0.00 in0.0 mm 0.00 in0.0 mm 0.00 in0.0 mm
04:00 AM 45.0°F7.2°C 44.3°F6.8°C 97% 11.4 mph ESE18.3 kmh ESE 19.9 mph32.0 kmh 30.30 in1026.1 mb 0.00 in0.0 mm 0.00 in0.0 mm 0.00 in0.0 mm
03:55 AM 44.8°F7.1°C 44.1°F6.7°C 97% 11.8 mph E19.0 kmh E 17.4 mph28.0 kmh 30.30 in1026.1 mb 0.00 in0.0 mm 0.00 in0.0 mm 0.00 in0.0 mm
03:50 AM 44.8°F7.1°C 44.3°F6.8°C 98% 11.2 mph E18.0 kmh E 17.4 mph28.0 kmh 30.31 in1026.4 mb 0.00 in0.0 mm 0.00 in0.0 mm 0.00 in0.0 mm
03:45 AM 44.8°F7.1°C 44.4°F6.9°C 98% 10.6 mph E17.1 kmh E 17.4 mph28.0 kmh 30.31 in1026.4 mb 0.00 in0.0 mm 0.00 in0.0 mm 0.00 in0.0 mm
03:40 AM 44.8°F7.1°C 44.4°F6.9°C 99% 12.7 mph E20.4 kmh E 19.9 mph32.0 kmh 30.32 in1026.8 mb 0.00 in0.0 mm 0.00 in0.0 mm 0.00 in0.0 mm
03:35 AM 44.7°F7.1°C 44.4°F6.9°C 99% 13.3 mph E21.4 kmh E 19.9 mph32.0 kmh 30.32 in1026.8 mb 0.00 in0.0 mm 0.00 in0.0 mm 0.00 in0.0 mm
03:30 AM 44.6°F7.0°C 44.3°F6.8°C 99% 10.9 mph E17.5 kmh E 17.4 mph28.0 kmh 30.33 in1027.1 mb 0.00 in0.0 mm 0.00 in0.0 mm 0.00 in0.0 mm
03:25 AM 44.6°F7.0°C 44.3°F6.8°C 99% 8.4 mph ESE13.5 kmh ESE 15.0 mph24.1 kmh 30.34 in1027.4 mb 0.00 in0.0 mm 0.00 in0.0 mm 0.00 in0.0 mm
03:20 AM 44.6°F7.0°C 44.3°F6.8°C 99% 8.7 mph ESE14.0 kmh ESE 15.0 mph24.1 kmh 30.34 in1027.4 mb 0.00 in0.0 mm 0.00 in0.0 mm 0.00 in0.0 mm
03:15 AM 44.6°F7.0°C 44.3°F6.8°C 99% 10.6 mph SE17.1 kmh SE 17.4 mph28.0 kmh 30.34 in1027.4 mb 0.00 in0.0 mm 0.00 in0.0 mm 0.00 in0.0 mm
03:10 AM 44.6°F7.0°C 44.3°F6.8°C 99% 9.8 mph ESE15.8 kmh ESE 19.9 mph32.0 kmh 30.35 in1027.8 mb 0.00 in0.0 mm 0.00 in0.0 mm 0.00 in0.0 mm
03:05 AM 44.6°F7.0°C 44.3°F6.8°C 99% 11.8 mph ESE19.0 kmh ESE 19.9 mph32.0 kmh 30.35 in1027.8 mb 0.00 in0.0 mm 0.00 in0.0 mm 0.00 in0.0 mm
03:00 AM 44.6°F7.0°C 44.3°F6.8°C 99% 10.5 mph ESE16.9 kmh ESE 17.4 mph28.0 kmh 30.35 in1027.8 mb 0.00 in0.0 mm 0.00 in0.0 mm 0.00 in0.0 mm
02:55 AM 44.5°F6.9°C 44.2°F6.8°C 99% 10.8 mph E17.4 kmh E 19.9 mph32.0 kmh 30.35 in1027.8 mb 0.00 in0.0 mm 0.00 in0.0 mm 0.00 in0.0 mm
02:50 AM 44.4°F6.9°C 44.1°F6.7°C 99% 10.9 mph E17.5 kmh E 17.4 mph28.0 kmh 30.36 in1028.1 mb 0.00 in0.0 mm 0.00 in0.0 mm 0.00 in0.0 mm
02:45 AM 44.4°F6.9°C 44.1°F6.7°C 99% 10.0 mph E16.1 kmh E 15.0 mph24.1 kmh 30.36 in1028.1 mb 0.00 in0.0 mm 0.00 in0.0 mm 0.00 in0.0 mm
02:40 AM 44.4°F6.9°C 44.1°F6.7°C 99% 9.3 mph E15.0 kmh E 17.4 mph28.0 kmh 30.37 in1028.4 mb 0.00 in0.0 mm 0.00 in0.0 mm 0.00 in0.0 mm
02:35 AM 44.4°F6.9°C 44.1°F6.7°C 99% 8.8 mph E14.2 kmh E 19.9 mph32.0 kmh 30.37 in1028.4 mb 0.00 in0.0 mm 0.00 in0.0 mm 0.00 in0.0 mm
02:30 AM 44.4°F6.9°C 44.1°F6.7°C 99% 10.7 mph E17.2 kmh E 17.4 mph28.0 kmh 30.37 in1028.4 mb 0.00 in0.0 mm 0.00 in0.0 mm 0.00 in0.0 mm
02:25 AM 44.4°F6.9°C 44.1°F6.7°C 99% 9.3 mph E15.0 kmh E 17.4 mph28.0 kmh 30.37 in1028.4 mb 0.00 in0.0 mm 0.00 in0.0 mm 0.00 in0.0 mm
02:20 AM 44.3°F6.8°C 44.0°F6.7°C 99% 10.6 mph E17.1 kmh E 17.4 mph28.0 kmh 30.37 in1028.4 mb 0.00 in0.0 mm 0.00 in0.0 mm 0.00 in0.0 mm
02:15 AM 44.2°F6.8°C 43.9°F6.6°C 99% 9.4 mph E15.1 kmh E 15.0 mph24.1 kmh 30.37 in1028.4 mb 0.00 in0.0 mm 0.00 in0.0 mm 0.00 in0.0 mm
02:10 AM 44.2°F6.8°C 43.9°F6.6°C 99% 10.3 mph E16.6 kmh E 15.0 mph24.1 kmh 30.38 in1028.8 mb 0.00 in0.0 mm 0.00 in0.0 mm 0.00 in0.0 mm
02:05 AM 44.2°F6.8°C 43.9°F6.6°C 99% 10.2 mph E16.4 kmh E 19.9 mph32.0 kmh 30.38 in1028.8 mb 0.00 in0.0 mm 0.00 in0.0 mm 0.00 in0.0 mm
02:00 AM 44.2°F6.8°C 43.9°F6.6°C 99% 10.9 mph E17.5 kmh E 17.4 mph28.0 kmh 30.38 in1028.8 mb 0.00 in0.0 mm 0.00 in0.0 mm 0.00 in0.0 mm
01:55 AM 44.2°F6.8°C 43.9°F6.6°C 99% 9.7 mph E15.6 kmh E 19.9 mph32.0 kmh 30.39 in1029.1 mb 0.00 in0.0 mm 0.00 in0.0 mm 0.00 in0.0 mm
01:50 AM 44.2°F6.8°C 43.9°F6.6°C 99% 10.7 mph E17.2 kmh E 17.4 mph28.0 kmh 30.39 in1029.1 mb 0.00 in0.0 mm 0.00 in0.0 mm 0.00 in0.0 mm
01:45 AM 44.2°F6.8°C 43.9°F6.6°C 99% 10.0 mph E16.1 kmh E 15.0 mph24.1 kmh 30.39 in1029.1 mb 0.00 in0.0 mm 0.00 in0.0 mm 0.00 in0.0 mm
01:40 AM 44.2°F6.8°C 43.9°F6.6°C 99% 9.3 mph E15.0 kmh E 15.0 mph24.1 kmh 30.39 in1029.1 mb 0.00 in0.0 mm 0.00 in0.0 mm 0.00 in0.0 mm
01:35 AM 44.2°F6.8°C 43.9°F6.6°C 99% 9.0 mph E14.5 kmh E 15.0 mph24.1 kmh 30.39 in1029.1 mb 0.00 in0.0 mm 0.00 in0.0 mm 0.00 in0.0 mm
01:30 AM 44.2°F6.8°C 43.9°F6.6°C 99% 10.4 mph E16.7 kmh E 17.4 mph28.0 kmh 30.39 in1029.1 mb 0.00 in0.0 mm 0.00 in0.0 mm 0.00 in0.0 mm
01:25 AM 44.2°F6.8°C 43.9°F6.6°C 99% 9.1 mph E14.6 kmh E 17.4 mph28.0 kmh 30.39 in1029.1 mb 0.00 in0.0 mm 0.00 in0.0 mm 0.00 in0.0 mm
01:20 AM 44.2°F6.8°C 43.9°F6.6°C 99% 11.9 mph E19.2 kmh E 19.9 mph32.0 kmh 30.40 in1029.5 mb 0.00 in0.0 mm 0.00 in0.0 mm 0.00 in0.0 mm
01:15 AM 44.2°F6.8°C 43.9°F6.6°C 99% 10.1 mph E16.3 kmh E 19.9 mph32.0 kmh 30.40 in1029.5 mb 0.00 in0.0 mm 0.00 in0.0 mm 0.00 in0.0 mm
01:10 AM 44.2°F6.8°C 43.9°F6.6°C 99% 9.0 mph ENE14.5 kmh ENE 17.4 mph28.0 kmh 30.40 in1029.5 mb 0.00 in0.0 mm 0.00 in0.0 mm 0.00 in0.0 mm
01:05 AM 44.2°F6.8°C 43.9°F6.6°C 99% 9.6 mph E15.4 kmh E 17.4 mph28.0 kmh 30.41 in1029.8 mb 0.00 in0.0 mm 0.00 in0.0 mm 0.00 in0.0 mm
01:00 AM 44.2°F6.8°C 43.9°F6.6°C 99% 8.4 mph E13.5 kmh E 12.3 mph19.8 kmh 30.41 in1029.8 mb 0.00 in0.0 mm 0.00 in0.0 mm 0.00 in0.0 mm
12:55 AM 44.2°F6.8°C 43.9°F6.6°C 99% 8.2 mph E13.2 kmh E 12.3 mph19.8 kmh 30.41 in1029.8 mb 0.00 in0.0 mm 0.00 in0.0 mm 0.00 in0.0 mm
12:50 AM 44.2°F6.8°C 43.9°F6.6°C 99% 7.3 mph E11.7 kmh E 15.0 mph24.1 kmh 30.42 in1030.1 mb 0.00 in0.0 mm 0.00 in0.0 mm 0.00 in0.0 mm
12:45 AM 44.1°F6.7°C 43.8°F6.6°C 99% 8.8 mph E14.2 kmh E 15.0 mph24.1 kmh 30.42 in1030.1 mb 0.00 in0.0 mm 0.00 in0.0 mm 0.00 in0.0 mm
12:40 AM 44.1°F6.7°C 43.8°F6.6°C 99% 6.1 mph E9.8 kmh E 12.3 mph19.8 kmh 30.42 in1030.1 mb 0.00 in0.0 mm 0.00 in0.0 mm 0.00 in0.0 mm
12:35 AM 44.1°F6.7°C 43.8°F6.6°C 99% 6.7 mph E10.8 kmh E 12.3 mph19.8 kmh 30.42 in1030.1 mb 0.00 in0.0 mm 0.00 in0.0 mm 0.00 in0.0 mm
12:30 AM 44.1°F6.7°C 43.8°F6.6°C 99% 7.2 mph ESE11.6 kmh ESE 12.3 mph19.8 kmh 30.42 in1030.1 mb 0.00 in0.0 mm 0.00 in0.0 mm 0.00 in0.0 mm
12:25 AM 43.9°F6.6°C 43.6°F6.4°C 99% 6.8 mph E10.9 kmh E 12.3 mph19.8 kmh 30.42 in1030.1 mb 0.00 in0.0 mm 0.00 in0.0 mm 0.00 in0.0 mm
12:20 AM 43.9°F6.6°C 43.6°F6.4°C 99% 5.5 mph ESE8.9 kmh ESE 9.8 mph15.8 kmh 30.43 in1030.5 mb 0.00 in0.0 mm 0.00 in0.0 mm 0.00 in0.0 mm
12:15 AM 43.9°F6.6°C 43.6°F6.4°C 99% 5.8 mph ESE9.3 kmh ESE 12.3 mph19.8 kmh 30.43 in1030.5 mb 0.00 in0.0 mm 0.00 in0.0 mm 0.00 in0.0 mm
12:10 AM 43.9°F6.6°C 43.6°F6.4°C 99% 6.2 mph ESE10.0 kmh ESE 9.8 mph15.8 kmh 30.44 in1030.8 mb 0.00 in0.0 mm 0.00 in0.0 mm 0.00 in0.0 mm
12:05 AM 43.9°F6.6°C 43.6°F6.4°C 99% 5.3 mph ESE8.5 kmh ESE 9.8 mph15.8 kmh 30.43 in1030.5 mb 0.00 in0.0 mm 0.00 in0.0 mm 0.00 in0.0 mm
12:00 AM 43.8°F6.6°C 43.6°F6.4°C 99% 4.9 mph ESE7.9 kmh ESE 7.4 mph11.9 kmh 30.44 in1030.8 mb 0.00 in0.0 mm 0.00 in0.0 mm 0.00 in0.0 mm